Juan De La Cosa — ECJE — position and weather

sailwx.info

Track history (hours):
 
Tides and Currents Weather Stations Pressure Air Temp Water Temp Dewpoint Dewpoint Depression Visibility Wind Speed Wind Dir Waves Ship Positions

Juan De La Cosa

Last reported at 2016-May-26 00:33 UTC. Time now 2016-May-26 06:51 UTC.
Position N 43°38' W 003°24'.

Length 75 m.

Type: SAR. MMSI: 224612000.

Date/timePositionNaut miles runAvg speedWind from/ knotsBaromVisibWave heightAir tempDewpointWater temp
2016-May-26 00:33N 43°38' W 003°24'64 1.4
2016-May-24 03:31N 43°35' W 001°57'  
2016-May-21 11:15N 46°30' W 004°39'7 7.4
2016-May-21 10:20N 46°35' W 004°46'3 2.9
2016-May-21 09:21N 46°36' W 004°49'7 8.2
2016-May-21 08:33N 46°31' W 004°43'9 7.7
2016-May-21 07:23N 46°25' W 004°34'6 7.5
2016-May-21 06:33N 46°20' W 004°28'9 7.4
2016-May-21 05:19N 46°13' W 004°19'15 7.7
2016-May-21 03:24N 46°02' W 004°05'7 7.9
2016-May-21 02:33N 45°57' W 003°59'8 8.1
2016-May-21 01:33N 45°51' W 003°51'9 8.0
2016-May-21 00:26N 45°44' W 003°42'7 8.2
2016-May-20 23:33N 45°39' W 003°35'8 7.9
2016-May-20 22:33N 45°33' W 003°28'9 8.0
2016-May-20 21:25N 45°26' W 003°19'7 7.8
2016-May-20 20:31N 45°21' W 003°13'37 7.4
2016-May-20 15:33N 45°01' W 002°29'  
Track history (hours):
 
Tides and Currents Weather Stations Pressure Air Temp Water Temp Dewpoint Dewpoint Depression Visibility Wind Speed Wind Dir Waves Ship Positions

Juan De La Cosa

Last reported at 2016-May-26 00:33 UTC. Time now 2016-May-26 06:51 UTC.
Position N 43°38' W 003°24'.

Length 75 m.

Type: SAR. MMSI: 224612000.

Date/timePositionNaut miles runAvg speedWind from/ knotsBaromVisibWave heightAir tempDewpointWater temp
2016-May-26 00:33N 43°38' W 003°24'64 1.4
2016-May-24 03:31N 43°35' W 001°57'  
2016-May-21 11:15N 46°30' W 004°39'7 7.4
2016-May-21 10:20N 46°35' W 004°46'3 2.9
2016-May-21 09:21N 46°36' W 004°49'7 8.2
2016-May-21 08:33N 46°31' W 004°43'9 7.7
2016-May-21 07:23N 46°25' W 004°34'6 7.5
2016-May-21 06:33N 46°20' W 004°28'9 7.4
2016-May-21 05:19N 46°13' W 004°19'15 7.7
2016-May-21 03:24N 46°02' W 004°05'7 7.9
2016-May-21 02:33N 45°57' W 003°59'8 8.1
2016-May-21 01:33N 45°51' W 003°51'9 8.0
2016-May-21 00:26N 45°44' W 003°42'7 8.2
2016-May-20 23:33N 45°39' W 003°35'8 7.9
2016-May-20 22:33N 45°33' W 003°28'9 8.0
2016-May-20 21:25N 45°26' W 003°19'7 7.8
2016-May-20 20:31N 45°21' W 003°13'37 7.4
2016-May-20 15:33N 45°01' W 002°29'  

Dump ship's entire track history